sensor_id;sensor_type;location;lat;lon;timestamp;temperature;humidity
48535;DHT22;34323;52.022;5.686;2022-08-21T00:01:54;22.50;97.90
48535;DHT22;34323;52.022;5.686;2022-08-21T00:04:20;22.40;98.30
48535;DHT22;34323;52.022;5.686;2022-08-21T00:06:46;22.40;98.00
48535;DHT22;34323;52.022;5.686;2022-08-21T00:09:12;22.40;97.90
48535;DHT22;34323;52.022;5.686;2022-08-21T00:11:38;22.50;98.00
48535;DHT22;34323;52.022;5.686;2022-08-21T00:14:06;22.40;98.00
48535;DHT22;34323;52.022;5.686;2022-08-21T00:16:32;22.40;98.00
48535;DHT22;34323;52.022;5.686;2022-08-21T00:18:57;22.30;98.00
48535;DHT22;34323;52.022;5.686;2022-08-21T00:21:23;22.30;98.10
48535;DHT22;34323;52.022;5.686;2022-08-21T00:23:50;22.30;98.00
48535;DHT22;34323;52.022;5.686;2022-08-21T00:26:16;22.30;97.90
48535;DHT22;34323;52.022;5.686;2022-08-21T00:28:41;22.30;97.80
48535;DHT22;34323;52.022;5.686;2022-08-21T00:31:07;22.30;97.80
48535;DHT22;34323;52.022;5.686;2022-08-21T00:33:33;22.40;97.70
48535;DHT22;34323;52.022;5.686;2022-08-21T00:35:59;22.30;98.10
48535;DHT22;34323;52.022;5.686;2022-08-21T00:38:25;22.30;98.10
48535;DHT22;34323;52.022;5.686;2022-08-21T00:40:54;22.30;98.00
48535;DHT22;34323;52.022;5.686;2022-08-21T00:43:29;22.10;98.20
48535;DHT22;34323;52.022;5.686;2022-08-21T00:45:56;22.10;98.20
48535;DHT22;34323;52.022;5.686;2022-08-21T00:48:23;22.10;98.10
48535;DHT22;34323;52.022;5.686;2022-08-21T00:51:00;22.10;97.90
48535;DHT22;34323;52.022;5.686;2022-08-21T00:53:28;22.10;97.80
48535;DHT22;34323;52.022;5.686;2022-08-21T00:55:55;22.20;97.90
48535;DHT22;34323;52.022;5.686;2022-08-21T00:58:21;22.30;98.10
48535;DHT22;34323;52.022;5.686;2022-08-21T01:00:49;22.10;98.10
48535;DHT22;34323;52.022;5.686;2022-08-21T01:03:20;22.10;98.10
48535;DHT22;34323;52.022;5.686;2022-08-21T01:05:47;22.00;97.90
48535;DHT22;34323;52.022;5.686;2022-08-21T01:08:15;22.10;97.90
48535;DHT22;34323;52.022;5.686;2022-08-21T01:10:42;22.10;98.10
48535;DHT22;34323;52.022;5.686;2022-08-21T01:13:10;22.10;98.00
48535;DHT22;34323;52.022;5.686;2022-08-21T01:15:39;22.00;98.00
48535;DHT22;34323;52.022;5.686;2022-08-21T01:18:08;22.10;98.20
48535;DHT22;34323;52.022;5.686;2022-08-21T01:20:35;21.90;98.30
48535;DHT22;34323;52.022;5.686;2022-08-21T01:23:03;21.80;98.40
48535;DHT22;34323;52.022;5.686;2022-08-21T01:25:29;21.90;98.40
48535;DHT22;34323;52.022;5.686;2022-08-21T01:27:56;21.90;98.40
48535;DHT22;34323;52.022;5.686;2022-08-21T01:30:25;21.80;98.50
48535;DHT22;34323;52.022;5.686;2022-08-21T01:32:51;21.70;98.40
48535;DHT22;34323;52.022;5.686;2022-08-21T01:35:18;21.70;98.60
48535;DHT22;34323;52.022;5.686;2022-08-21T01:37:44;21.70;98.50
48535;DHT22;34323;52.022;5.686;2022-08-21T01:40:12;21.60;98.70
48535;DHT22;34323;52.022;5.686;2022-08-21T01:42:38;21.60;98.70
48535;DHT22;34323;52.022;5.686;2022-08-21T01:45:05;21.70;98.70
48535;DHT22;34323;52.022;5.686;2022-08-21T01:47:31;21.60;98.60
48535;DHT22;34323;52.022;5.686;2022-08-21T01:49:58;21.70;98.60
48535;DHT22;34323;52.022;5.686;2022-08-21T01:52:23;21.70;98.50
48535;DHT22;34323;52.022;5.686;2022-08-21T01:54:49;21.60;98.60
48535;DHT22;34323;52.022;5.686;2022-08-21T01:57:15;21.60;98.90
48535;DHT22;34323;52.022;5.686;2022-08-21T01:59:41;21.40;98.70
48535;DHT22;34323;52.022;5.686;2022-08-21T02:02:06;21.50;98.70
48535;DHT22;34323;52.022;5.686;2022-08-21T02:04:35;21.60;98.60
48535;DHT22;34323;52.022;5.686;2022-08-21T02:07:01;21.50;98.80
48535;DHT22;34323;52.022;5.686;2022-08-21T02:09:27;21.40;98.70
48535;DHT22;34323;52.022;5.686;2022-08-21T02:11:53;21.50;98.50
48535;DHT22;34323;52.022;5.686;2022-08-21T02:14:20;21.60;98.40
48535;DHT22;34323;52.022;5.686;2022-08-21T02:16:46;21.70;98.40
48535;DHT22;34323;52.022;5.686;2022-08-21T02:19:14;21.60;98.50
48535;DHT22;34323;52.022;5.686;2022-08-21T02:21:41;21.60;98.50
48535;DHT22;34323;52.022;5.686;2022-08-21T02:24:07;21.60;98.40
48535;DHT22;34323;52.022;5.686;2022-08-21T02:26:33;21.60;98.60
48535;DHT22;34323;52.022;5.686;2022-08-21T02:28:59;21.60;98.50
48535;DHT22;34323;52.022;5.686;2022-08-21T02:31:25;21.50;98.50
48535;DHT22;34323;52.022;5.686;2022-08-21T02:33:50;21.40;98.40
48535;DHT22;34323;52.022;5.686;2022-08-21T02:36:16;21.40;98.50
48535;DHT22;34323;52.022;5.686;2022-08-21T02:38:43;21.40;98.60
48535;DHT22;34323;52.022;5.686;2022-08-21T02:41:15;21.40;98.50
48535;DHT22;34323;52.022;5.686;2022-08-21T02:43:41;21.50;98.50
48535;DHT22;34323;52.022;5.686;2022-08-21T02:46:09;21.40;98.60
48535;DHT22;34323;52.022;5.686;2022-08-21T02:48:36;21.30;98.60
48535;DHT22;34323;52.022;5.686;2022-08-21T02:51:11;21.40;98.50
48535;DHT22;34323;52.022;5.686;2022-08-21T02:53:38;21.40;98.70
48535;DHT22;34323;52.022;5.686;2022-08-21T02:56:06;21.40;98.70
48535;DHT22;34323;52.022;5.686;2022-08-21T02:58:42;21.10;99.00
48535;DHT22;34323;52.022;5.686;2022-08-21T03:01:09;21.10;99.10
48535;DHT22;34323;52.022;5.686;2022-08-21T03:03:39;21.00;99.20
48535;DHT22;34323;52.022;5.686;2022-08-21T03:06:07;21.10;99.10
48535;DHT22;34323;52.022;5.686;2022-08-21T03:08:33;21.00;99.40
48535;DHT22;34323;52.022;5.686;2022-08-21T03:10:59;20.90;99.60
48535;DHT22;34323;52.022;5.686;2022-08-21T03:13:27;20.70;99.70
48535;DHT22;34323;52.022;5.686;2022-08-21T03:15:53;20.80;99.70
48535;DHT22;34323;52.022;5.686;2022-08-21T03:18:19;20.80;99.80
48535;DHT22;34323;52.022;5.686;2022-08-21T03:20:46;20.80;99.80
48535;DHT22;34323;52.022;5.686;2022-08-21T03:23:12;20.70;99.80
48535;DHT22;34323;52.022;5.686;2022-08-21T03:25:38;20.90;99.90
48535;DHT22;34323;52.022;5.686;2022-08-21T03:28:05;20.70;99.90
48535;DHT22;34323;52.022;5.686;2022-08-21T03:30:31;20.60;99.90
48535;DHT22;34323;52.022;5.686;2022-08-21T03:32:58;20.60;99.90
48535;DHT22;34323;52.022;5.686;2022-08-21T03:35:25;20.70;99.90
48535;DHT22;34323;52.022;5.686;2022-08-21T03:37:51;20.70;99.90
48535;DHT22;34323;52.022;5.686;2022-08-21T03:40:18;20.70;99.90
48535;DHT22;34323;52.022;5.686;2022-08-21T03:42:44;20.80;99.90
48535;DHT22;34323;52.022;5.686;2022-08-21T03:45:13;20.90;99.90
48535;DHT22;34323;52.022;5.686;2022-08-21T03:48:00;20.80;99.90
48535;DHT22;34323;52.022;5.686;2022-08-21T03:50:29;20.90;99.90
48535;DHT22;34323;52.022;5.686;2022-08-21T03:52:55;20.80;99.90
48535;DHT22;34323;52.022;5.686;2022-08-21T03:55:21;20.70;99.90
48535;DHT22;34323;52.022;5.686;2022-08-21T03:57:47;20.70;99.90
48535;DHT22;34323;52.022;5.686;2022-08-21T04:00:14;20.60;99.90
48535;DHT22;34323;52.022;5.686;2022-08-21T04:02:40;20.50;99.90
48535;DHT22;34323;52.022;5.686;2022-08-21T04:05:07;20.60;99.90
48535;DHT22;34323;52.022;5.686;2022-08-21T04:07:33;20.60;99.90
48535;DHT22;34323;52.022;5.686;2022-08-21T04:09:58;20.80;99.90
48535;DHT22;34323;52.022;5.686;2022-08-21T04:12:24;20.70;99.90
48535;DHT22;34323;52.022;5.686;2022-08-21T04:14:50;20.80;99.90
48535;DHT22;34323;52.022;5.686;2022-08-21T04:17:17;20.80;99.90
48535;DHT22;34323;52.022;5.686;2022-08-21T04:19:43;20.80;99.90
48535;DHT22;34323;52.022;5.686;2022-08-21T04:22:08;20.80;99.90
48535;DHT22;34323;52.022;5.686;2022-08-21T04:24:34;20.80;99.90
48535;DHT22;34323;52.022;5.686;2022-08-21T04:27:00;20.60;99.90
48535;DHT22;34323;52.022;5.686;2022-08-21T04:29:25;20.90;99.80
48535;DHT22;34323;52.022;5.686;2022-08-21T04:31:51;21.00;99.60
48535;DHT22;34323;52.022;5.686;2022-08-21T04:34:17;20.90;99.60
48535;DHT22;34323;52.022;5.686;2022-08-21T04:36:43;20.90;99.50
48535;DHT22;34323;52.022;5.686;2022-08-21T04:39:09;21.20;99.30
48535;DHT22;34323;52.022;5.686;2022-08-21T04:41:35;21.30;99.40
48535;DHT22;34323;52.022;5.686;2022-08-21T04:44:02;21.20;99.40
48535;DHT22;34323;52.022;5.686;2022-08-21T04:46:28;21.10;99.30
48535;DHT22;34323;52.022;5.686;2022-08-21T04:48:53;21.10;99.40
48535;DHT22;34323;52.022;5.686;2022-08-21T04:51:29;21.10;99.50
48535;DHT22;34323;52.022;5.686;2022-08-21T04:54:11;21.00;99.30
48535;DHT22;34323;52.022;5.686;2022-08-21T04:56:51;21.10;99.30
48535;DHT22;34323;52.022;5.686;2022-08-21T04:59:24;21.10;99.30
48535;DHT22;34323;52.022;5.686;2022-08-21T05:01:51;20.80;99.30
48535;DHT22;34323;52.022;5.686;2022-08-21T05:04:20;21.00;99.50
48535;DHT22;34323;52.022;5.686;2022-08-21T05:06:47;20.80;99.40
48535;DHT22;34323;52.022;5.686;2022-08-21T05:09:18;20.80;99.20
48535;DHT22;34323;52.022;5.686;2022-08-21T05:11:44;20.90;99.40
48535;DHT22;34323;52.022;5.686;2022-08-21T05:14:11;20.90;99.30
48535;DHT22;34323;52.022;5.686;2022-08-21T05:16:37;21.00;99.30
48535;DHT22;34323;52.022;5.686;2022-08-21T05:19:04;20.70;99.30
48535;DHT22;34323;52.022;5.686;2022-08-21T05:21:29;21.00;99.50
48535;DHT22;34323;52.022;5.686;2022-08-21T05:23:55;21.00;99.40
48535;DHT22;34323;52.022;5.686;2022-08-21T05:26:20;20.60;99.60
48535;DHT22;34323;52.022;5.686;2022-08-21T05:28:46;20.90;99.70
48535;DHT22;34323;52.022;5.686;2022-08-21T05:31:12;20.80;99.80
48535;DHT22;34323;52.022;5.686;2022-08-21T05:33:37;20.60;99.90
48535;DHT22;34323;52.022;5.686;2022-08-21T05:36:03;20.70;99.90
48535;DHT22;34323;52.022;5.686;2022-08-21T05:38:28;20.50;99.90
48535;DHT22;34323;52.022;5.686;2022-08-21T05:40:54;20.60;99.90
48535;DHT22;34323;52.022;5.686;2022-08-21T05:43:20;20.70;99.90
48535;DHT22;34323;52.022;5.686;2022-08-21T05:45:46;20.50;99.90
48535;DHT22;34323;52.022;5.686;2022-08-21T05:48:15;20.60;99.90
48535;DHT22;34323;52.022;5.686;2022-08-21T05:50:42;20.70;99.90
48535;DHT22;34323;52.022;5.686;2022-08-21T05:53:08;20.70;99.90
48535;DHT22;34323;52.022;5.686;2022-08-21T05:55:35;20.70;99.90
48535;DHT22;34323;52.022;5.686;2022-08-21T05:58:02;20.80;99.90
48535;DHT22;34323;52.022;5.686;2022-08-21T06:00:28;20.80;99.90
48535;DHT22;34323;52.022;5.686;2022-08-21T06:02:54;20.30;99.90
48535;DHT22;34323;52.022;5.686;2022-08-21T06:05:19;19.90;99.90
48535;DHT22;34323;52.022;5.686;2022-08-21T06:07:45;19.90;99.90
48535;DHT22;34323;52.022;5.686;2022-08-21T06:10:10;19.90;99.90
48535;DHT22;34323;52.022;5.686;2022-08-21T06:12:36;19.90;99.90
48535;DHT22;34323;52.022;5.686;2022-08-21T06:15:02;19.80;99.90
48535;DHT22;34323;52.022;5.686;2022-08-21T06:17:28;20.00;99.90
48535;DHT22;34323;52.022;5.686;2022-08-21T06:19:54;20.10;99.90
48535;DHT22;34323;52.022;5.686;2022-08-21T06:22:19;19.80;99.90
48535;DHT22;34323;52.022;5.686;2022-08-21T06:24:45;20.00;99.90
48535;DHT22;34323;52.022;5.686;2022-08-21T06:27:11;20.40;99.90
48535;DHT22;34323;52.022;5.686;2022-08-21T06:29:37;20.30;99.90
48535;DHT22;34323;52.022;5.686;2022-08-21T06:32:04;20.60;99.90
48535;DHT22;34323;52.022;5.686;2022-08-21T06:34:30;20.70;99.90
48535;DHT22;34323;52.022;5.686;2022-08-21T06:36:55;20.70;99.90
48535;DHT22;34323;52.022;5.686;2022-08-21T06:39:21;20.60;99.90
48535;DHT22;34323;52.022;5.686;2022-08-21T06:41:47;20.60;99.90
48535;DHT22;34323;52.022;5.686;2022-08-21T06:44:16;20.50;99.90
48535;DHT22;34323;52.022;5.686;2022-08-21T06:46:42;20.50;99.90
48535;DHT22;34323;52.022;5.686;2022-08-21T06:49:07;20.60;99.90
48535;DHT22;34323;52.022;5.686;2022-08-21T06:51:33;20.60;99.90
48535;DHT22;34323;52.022;5.686;2022-08-21T06:53:58;20.90;99.90
48535;DHT22;34323;52.022;5.686;2022-08-21T06:56:24;21.00;99.90
48535;DHT22;34323;52.022;5.686;2022-08-21T06:58:50;21.20;99.90
48535;DHT22;34323;52.022;5.686;2022-08-21T07:01:15;21.20;99.90
48535;DHT22;34323;52.022;5.686;2022-08-21T07:03:43;21.00;99.90
48535;DHT22;34323;52.022;5.686;2022-08-21T07:06:10;21.00;99.90
48535;DHT22;34323;52.022;5.686;2022-08-21T07:08:36;21.20;99.90
48535;DHT22;34323;52.022;5.686;2022-08-21T07:11:07;21.40;99.90
48535;DHT22;34323;52.022;5.686;2022-08-21T07:13:34;21.30;99.90
48535;DHT22;34323;52.022;5.686;2022-08-21T07:15:59;21.20;99.90
48535;DHT22;34323;52.022;5.686;2022-08-21T07:18:25;21.30;99.90
48535;DHT22;34323;52.022;5.686;2022-08-21T07:20:50;21.50;99.90
48535;DHT22;34323;52.022;5.686;2022-08-21T07:23:24;21.50;99.90
48535;DHT22;34323;52.022;5.686;2022-08-21T07:25:51;21.30;99.90
48535;DHT22;34323;52.022;5.686;2022-08-21T07:28:17;21.30;99.90
48535;DHT22;34323;52.022;5.686;2022-08-21T07:30:43;21.60;99.90
48535;DHT22;34323;52.022;5.686;2022-08-21T07:33:08;21.90;99.90
48535;DHT22;34323;52.022;5.686;2022-08-21T07:35:34;22.10;99.90
48535;DHT22;34323;52.022;5.686;2022-08-21T07:37:59;22.30;99.90
48535;DHT22;34323;52.022;5.686;2022-08-21T07:40:25;22.20;99.90
48535;DHT22;34323;52.022;5.686;2022-08-21T07:42:51;22.20;99.90
48535;DHT22;34323;52.022;5.686;2022-08-21T07:45:20;22.10;99.90
48535;DHT22;34323;52.022;5.686;2022-08-21T07:47:47;21.70;99.90
48535;DHT22;34323;52.022;5.686;2022-08-21T07:50:14;21.40;99.90
48535;DHT22;34323;52.022;5.686;2022-08-21T07:52:41;21.50;99.90
48535;DHT22;34323;52.022;5.686;2022-08-21T07:55:13;21.40;99.90
48535;DHT22;34323;52.022;5.686;2022-08-21T07:57:39;21.60;99.90
48535;DHT22;34323;52.022;5.686;2022-08-21T08:00:08;21.80;99.90
48535;DHT22;34323;52.022;5.686;2022-08-21T08:02:34;21.70;99.90
48535;DHT22;34323;52.022;5.686;2022-08-21T08:05:05;21.80;99.90
48535;DHT22;34323;52.022;5.686;2022-08-21T08:07:31;21.80;99.90
48535;DHT22;34323;52.022;5.686;2022-08-21T08:09:57;21.70;99.90
48535;DHT22;34323;52.022;5.686;2022-08-21T08:12:24;21.90;99.90
48535;DHT22;34323;52.022;5.686;2022-08-21T08:14:58;22.10;99.90
48535;DHT22;34323;52.022;5.686;2022-08-21T08:17:24;22.50;99.90
48535;DHT22;34323;52.022;5.686;2022-08-21T08:19:50;22.70;99.90
48535;DHT22;34323;52.022;5.686;2022-08-21T08:22:17;22.70;99.90
48535;DHT22;34323;52.022;5.686;2022-08-21T08:24:48;22.90;99.90
48535;DHT22;34323;52.022;5.686;2022-08-21T08:27:15;22.90;99.90
48535;DHT22;34323;52.022;5.686;2022-08-21T08:29:42;23.00;99.90
48535;DHT22;34323;52.022;5.686;2022-08-21T08:32:07;23.10;99.90
48535;DHT22;34323;52.022;5.686;2022-08-21T08:34:34;23.30;99.90
48535;DHT22;34323;52.022;5.686;2022-08-21T08:37:00;23.40;99.90
48535;DHT22;34323;52.022;5.686;2022-08-21T08:39:26;23.40;99.90
48535;DHT22;34323;52.022;5.686;2022-08-21T08:42:13;23.40;99.90
48535;DHT22;34323;52.022;5.686;2022-08-21T08:44:41;23.70;99.90
48535;DHT22;34323;52.022;5.686;2022-08-21T08:47:08;23.80;99.90
48535;DHT22;34323;52.022;5.686;2022-08-21T08:49:40;23.70;99.90
48535;DHT22;34323;52.022;5.686;2022-08-21T08:52:29;23.60;99.90
48535;DHT22;34323;52.022;5.686;2022-08-21T08:55:08;23.70;99.90
48535;DHT22;34323;52.022;5.686;2022-08-21T08:57:36;23.70;99.90
48535;DHT22;34323;52.022;5.686;2022-08-21T09:00:09;23.90;99.90
48535;DHT22;34323;52.022;5.686;2022-08-21T09:02:40;24.40;99.90
48535;DHT22;34323;52.022;5.686;2022-08-21T09:05:07;24.50;99.90
48535;DHT22;34323;52.022;5.686;2022-08-21T09:07:47;24.30;99.90
48535;DHT22;34323;52.022;5.686;2022-08-21T09:10:21;24.40;99.90
48535;DHT22;34323;52.022;5.686;2022-08-21T09:13:09;24.40;99.90
48535;DHT22;34323;52.022;5.686;2022-08-21T09:18:33;24.20;99.90
48535;DHT22;34323;52.022;5.686;2022-08-21T09:21:13;24.80;99.90
48535;DHT22;34323;52.022;5.686;2022-08-21T09:24:04;25.30;99.90
48535;DHT22;34323;52.022;5.686;2022-08-21T09:26:48;25.50;99.90
48535;DHT22;34323;52.022;5.686;2022-08-21T09:29:19;25.50;99.90
48535;DHT22;34323;52.022;5.686;2022-08-21T09:31:47;25.30;99.90
48535;DHT22;34323;52.022;5.686;2022-08-21T09:34:30;25.10;99.90
48535;DHT22;34323;52.022;5.686;2022-08-21T09:36:57;25.20;99.90
48535;DHT22;34323;52.022;5.686;2022-08-21T09:39:29;25.30;99.90
48535;DHT22;34323;52.022;5.686;2022-08-21T09:41:58;25.20;99.90
48535;DHT22;34323;52.022;5.686;2022-08-21T09:44:29;25.40;99.90
48535;DHT22;34323;52.022;5.686;2022-08-21T09:46:55;25.80;99.90
48535;DHT22;34323;52.022;5.686;2022-08-21T09:49:32;26.30;99.90
48535;DHT22;34323;52.022;5.686;2022-08-21T09:51:59;26.50;99.90
48535;DHT22;34323;52.022;5.686;2022-08-21T09:54:39;26.50;99.90
48535;DHT22;34323;52.022;5.686;2022-08-21T09:59:52;27.20;99.90
48535;DHT22;34323;52.022;5.686;2022-08-21T10:02:31;27.00;99.90
48535;DHT22;34323;52.022;5.686;2022-08-21T10:05:00;27.10;99.60
48535;DHT22;34323;52.022;5.686;2022-08-21T10:07:29;27.30;98.70
48535;DHT22;34323;52.022;5.686;2022-08-21T10:10:29;27.30;98.30
48535;DHT22;34323;52.022;5.686;2022-08-21T10:15:51;26.50;99.70
48535;DHT22;34323;52.022;5.686;2022-08-21T10:18:35;26.90;99.60
48535;DHT22;34323;52.022;5.686;2022-08-21T10:26:51;26.90;99.50
48535;DHT22;34323;52.022;5.686;2022-08-21T10:35:26;27.60;98.30
48535;DHT22;34323;52.022;5.686;2022-08-21T10:41:30;27.50;97.80
48535;DHT22;34323;52.022;5.686;2022-08-21T10:46:50;27.50;97.70
48535;DHT22;34323;52.022;5.686;2022-08-21T10:52:32;27.90;97.90
48535;DHT22;34323;52.022;5.686;2022-08-21T10:55:36;27.80;97.50
48535;DHT22;34323;52.022;5.686;2022-08-21T10:57:59;28.10;98.10
48535;DHT22;34323;52.022;5.686;2022-08-21T11:00:46;28.20;96.50
48535;DHT22;34323;52.022;5.686;2022-08-21T11:03:29;28.40;96.80
48535;DHT22;34323;52.022;5.686;2022-08-21T11:06:13;28.30;97.10
48535;DHT22;34323;52.022;5.686;2022-08-21T11:08:46;28.50;96.90
48535;DHT22;34323;52.022;5.686;2022-08-21T11:11:42;28.80;96.40
48535;DHT22;34323;52.022;5.686;2022-08-21T11:17:09;28.50;96.10
48535;DHT22;34323;52.022;5.686;2022-08-21T11:19:50;28.30;97.10
48535;DHT22;34323;52.022;5.686;2022-08-21T11:22:24;28.40;96.30
48535;DHT22;34323;52.022;5.686;2022-08-21T11:25:03;28.70;96.40
48535;DHT22;34323;52.022;5.686;2022-08-21T11:28:00;28.90;95.90
48535;DHT22;34323;52.022;5.686;2022-08-21T11:30:46;28.70;96.50
48535;DHT22;34323;52.022;5.686;2022-08-21T11:35:54;28.10;96.00
48535;DHT22;34323;52.022;5.686;2022-08-21T11:38:41;27.70;96.80
48535;DHT22;34323;52.022;5.686;2022-08-21T11:43:45;28.60;96.60
48535;DHT22;34323;52.022;5.686;2022-08-21T11:49:08;29.70;95.90
48535;DHT22;34323;52.022;5.686;2022-08-21T11:51:44;29.40;95.00
48535;DHT22;34323;52.022;5.686;2022-08-21T11:54:40;29.30;95.90
48535;DHT22;34323;52.022;5.686;2022-08-21T11:57:34;29.60;94.60
48535;DHT22;34323;52.022;5.686;2022-08-21T12:00:07;30.00;94.50
48535;DHT22;34323;52.022;5.686;2022-08-21T12:02:42;30.00;94.90
48535;DHT22;34323;52.022;5.686;2022-08-21T12:05:10;30.00;93.90
48535;DHT22;34323;52.022;5.686;2022-08-21T12:07:42;29.90;93.90
48535;DHT22;34323;52.022;5.686;2022-08-21T12:10:14;30.10;94.20
48535;DHT22;34323;52.022;5.686;2022-08-21T12:12:44;30.70;94.20
48535;DHT22;34323;52.022;5.686;2022-08-21T12:17:40;31.40;93.30
48535;DHT22;34323;52.022;5.686;2022-08-21T12:23:16;32.00;92.40
48535;DHT22;34323;52.022;5.686;2022-08-21T12:25:48;31.40;92.50
48535;DHT22;34323;52.022;5.686;2022-08-21T12:28:26;31.30;92.90
48535;DHT22;34323;52.022;5.686;2022-08-21T12:30:52;31.50;91.30
48535;DHT22;34323;52.022;5.686;2022-08-21T12:33:32;31.10;91.20
48535;DHT22;34323;52.022;5.686;2022-08-21T12:36:10;30.40;91.60
48535;DHT22;34323;52.022;5.686;2022-08-21T12:39:00;30.00;92.50
48535;DHT22;34323;52.022;5.686;2022-08-21T12:41:30;30.40;92.40
48535;DHT22;34323;52.022;5.686;2022-08-21T12:44:08;31.00;92.70
48535;DHT22;34323;52.022;5.686;2022-08-21T12:46:56;31.50;91.50
48535;DHT22;34323;52.022;5.686;2022-08-21T12:52:01;31.30;91.30
48535;DHT22;34323;52.022;5.686;2022-08-21T12:54:38;31.40;91.50
48535;DHT22;34323;52.022;5.686;2022-08-21T12:57:05;31.60;91.10
48535;DHT22;34323;52.022;5.686;2022-08-21T12:59:31;31.80;91.30
48535;DHT22;34323;52.022;5.686;2022-08-21T13:02:00;32.20;91.30
48535;DHT22;34323;52.022;5.686;2022-08-21T13:04:36;31.80;91.50
48535;DHT22;34323;52.022;5.686;2022-08-21T13:07:10;31.60;90.70
48535;DHT22;34323;52.022;5.686;2022-08-21T13:09:47;31.40;90.40
48535;DHT22;34323;52.022;5.686;2022-08-21T13:12:14;30.60;91.00
48535;DHT22;34323;52.022;5.686;2022-08-21T13:14:42;30.00;92.20
48535;DHT22;34323;52.022;5.686;2022-08-21T13:17:10;30.50;91.80
48535;DHT22;34323;52.022;5.686;2022-08-21T13:19:36;31.10;91.70
48535;DHT22;34323;52.022;5.686;2022-08-21T13:22:03;31.90;91.40
48535;DHT22;34323;52.022;5.686;2022-08-21T13:24:35;32.80;91.70
48535;DHT22;34323;52.022;5.686;2022-08-21T13:27:01;33.50;89.80
48535;DHT22;34323;52.022;5.686;2022-08-21T13:29:29;33.80;89.10
48535;DHT22;34323;52.022;5.686;2022-08-21T13:31:58;34.50;89.80
48535;DHT22;34323;52.022;5.686;2022-08-21T13:34:29;35.00;88.30
48535;DHT22;34323;52.022;5.686;2022-08-21T13:36:58;35.50;90.20
48535;DHT22;34323;52.022;5.686;2022-08-21T13:39:24;36.40;88.80
48535;DHT22;34323;52.022;5.686;2022-08-21T13:41:54;37.10;85.80
48535;DHT22;34323;52.022;5.686;2022-08-21T13:44:23;37.90;84.80
48535;DHT22;34323;52.022;5.686;2022-08-21T13:46:52;38.20;82.50
48535;DHT22;34323;52.022;5.686;2022-08-21T13:49:22;37.90;81.10
48535;DHT22;34323;52.022;5.686;2022-08-21T13:51:48;38.20;82.50
48535;DHT22;34323;52.022;5.686;2022-08-21T13:54:25;38.50;81.30
48535;DHT22;34323;52.022;5.686;2022-08-21T13:56:51;38.20;80.20
48535;DHT22;34323;52.022;5.686;2022-08-21T13:59:29;37.70;82.30
48535;DHT22;34323;52.022;5.686;2022-08-21T14:01:58;38.50;82.90
48535;DHT22;34323;52.022;5.686;2022-08-21T14:04:36;37.60;80.70
48535;DHT22;34323;52.022;5.686;2022-08-21T14:07:15;37.60;82.20
48535;DHT22;34323;52.022;5.686;2022-08-21T14:09:43;36.70;82.00
48535;DHT22;34323;52.022;5.686;2022-08-21T14:12:15;35.80;82.20
48535;DHT22;34323;52.022;5.686;2022-08-21T14:14:41;35.60;85.00
48535;DHT22;34323;52.022;5.686;2022-08-21T14:17:13;36.70;84.30
48535;DHT22;34323;52.022;5.686;2022-08-21T14:19:50;37.30;81.30
48535;DHT22;34323;52.022;5.686;2022-08-21T14:22:30;36.10;83.90
48535;DHT22;34323;52.022;5.686;2022-08-21T14:28:03;37.20;82.20
48535;DHT22;34323;52.022;5.686;2022-08-21T14:30:32;37.30;81.80
48535;DHT22;34323;52.022;5.686;2022-08-21T14:32:59;37.60;80.60
48535;DHT22;34323;52.022;5.686;2022-08-21T14:35:24;36.20;82.30
48535;DHT22;34323;52.022;5.686;2022-08-21T14:37:51;35.60;82.40
48535;DHT22;34323;52.022;5.686;2022-08-21T14:40:18;35.70;83.00
48535;DHT22;34323;52.022;5.686;2022-08-21T14:42:45;35.70;81.60
48535;DHT22;34323;52.022;5.686;2022-08-21T14:45:23;34.90;82.30
48535;DHT22;34323;52.022;5.686;2022-08-21T14:47:50;34.30;84.30
48535;DHT22;34323;52.022;5.686;2022-08-21T14:50:15;34.60;84.20
48535;DHT22;34323;52.022;5.686;2022-08-21T14:52:41;35.30;83.80
48535;DHT22;34323;52.022;5.686;2022-08-21T14:55:09;35.70;82.20
48535;DHT22;34323;52.022;5.686;2022-08-21T14:57:40;34.80;81.90
48535;DHT22;34323;52.022;5.686;2022-08-21T15:00:06;34.40;84.20
48535;DHT22;34323;52.022;5.686;2022-08-21T15:02:33;33.70;82.50
48535;DHT22;34323;52.022;5.686;2022-08-21T15:04:58;33.20;83.60
48535;DHT22;34323;52.022;5.686;2022-08-21T15:07:24;32.70;85.00
48535;DHT22;34323;52.022;5.686;2022-08-21T15:09:50;32.50;85.40
48535;DHT22;34323;52.022;5.686;2022-08-21T15:12:15;32.60;85.00
48535;DHT22;34323;52.022;5.686;2022-08-21T15:14:41;32.80;85.90
48535;DHT22;34323;52.022;5.686;2022-08-21T15:17:08;32.70;84.70
48535;DHT22;34323;52.022;5.686;2022-08-21T15:19:34;32.50;84.90
48535;DHT22;34323;52.022;5.686;2022-08-21T15:22:00;31.70;86.40
48535;DHT22;34323;52.022;5.686;2022-08-21T15:24:26;31.20;87.10
48535;DHT22;34323;52.022;5.686;2022-08-21T15:26:53;31.10;88.00
48535;DHT22;34323;52.022;5.686;2022-08-21T15:29:20;31.00;87.70
48535;DHT22;34323;52.022;5.686;2022-08-21T15:31:52;31.20;87.70
48535;DHT22;34323;52.022;5.686;2022-08-21T15:34:19;31.30;87.70
48535;DHT22;34323;52.022;5.686;2022-08-21T15:36:44;31.40;87.10
48535;DHT22;34323;52.022;5.686;2022-08-21T15:39:10;30.90;87.40
48535;DHT22;34323;52.022;5.686;2022-08-21T15:41:36;30.60;89.40
48535;DHT22;34323;52.022;5.686;2022-08-21T15:44:01;30.50;88.60
48535;DHT22;34323;52.022;5.686;2022-08-21T15:46:27;30.60;89.60
48535;DHT22;34323;52.022;5.686;2022-08-21T15:48:53;30.50;88.80
48535;DHT22;34323;52.022;5.686;2022-08-21T15:51:18;30.50;88.70
48535;DHT22;34323;52.022;5.686;2022-08-21T15:53:44;30.30;88.90
48535;DHT22;34323;52.022;5.686;2022-08-21T15:56:33;30.20;88.50
48535;DHT22;34323;52.022;5.686;2022-08-21T15:59:05;30.10;88.50
48535;DHT22;34323;52.022;5.686;2022-08-21T16:01:32;30.00;88.30
48535;DHT22;34323;52.022;5.686;2022-08-21T16:03:58;29.70;89.60
48535;DHT22;34323;52.022;5.686;2022-08-21T16:06:24;29.60;89.00
48535;DHT22;34323;52.022;5.686;2022-08-21T16:08:49;29.50;89.40
48535;DHT22;34323;52.022;5.686;2022-08-21T16:11:15;29.80;90.00
48535;DHT22;34323;52.022;5.686;2022-08-21T16:13:43;29.90;89.30
48535;DHT22;34323;52.022;5.686;2022-08-21T16:16:11;30.10;89.00
48535;DHT22;34323;52.022;5.686;2022-08-21T16:18:38;30.10;89.60
48535;DHT22;34323;52.022;5.686;2022-08-21T16:21:05;30.20;89.00
48535;DHT22;34323;52.022;5.686;2022-08-21T16:23:32;30.20;88.70
48535;DHT22;34323;52.022;5.686;2022-08-21T16:26:00;30.40;89.00
48535;DHT22;34323;52.022;5.686;2022-08-21T16:28:27;30.60;89.00
48535;DHT22;34323;52.022;5.686;2022-08-21T16:30:53;30.40;89.00
48535;DHT22;34323;52.022;5.686;2022-08-21T16:33:31;30.40;88.70
48535;DHT22;34323;52.022;5.686;2022-08-21T16:36:01;30.40;89.00